createdAt,value
2019-05-12T00:01:52.040Z,7.28
2019-05-12T00:04:20.987Z,7.30
2019-05-12T00:06:49.898Z,7.21
2019-05-12T00:09:18.984Z,7.11
2019-05-12T00:11:48.423Z,7.04
2019-05-12T00:14:17.813Z,7.07
2019-05-12T00:16:45.692Z,7.06
2019-05-12T00:19:14.552Z,7.07
2019-05-12T00:21:43.506Z,7.06
2019-05-12T00:24:12.429Z,7.02
2019-05-12T00:26:41.855Z,6.98
2019-05-12T00:29:10.825Z,6.94
2019-05-12T00:31:39.702Z,6.90
2019-05-12T00:34:08.678Z,6.88
2019-05-12T00:36:38.036Z,6.83
2019-05-12T00:39:08.663Z,6.82
2019-05-12T00:41:38.713Z,6.74
2019-05-12T00:44:05.599Z,6.75
2019-05-12T00:46:34.506Z,6.75
2019-05-12T00:49:03.433Z,6.71
2019-05-12T00:51:32.314Z,6.63
2019-05-12T00:54:01.305Z,6.60
2019-05-12T00:56:30.212Z,6.51
2019-05-12T00:58:59.121Z,6.51
2019-05-12T01:01:28.662Z,6.47
2019-05-12T01:03:57.969Z,6.41
2019-05-12T01:06:27.696Z,6.36
2019-05-12T01:08:54.739Z,6.25
2019-05-12T01:11:23.659Z,6.23
2019-05-12T01:13:52.660Z,6.19
2019-05-12T01:16:21.478Z,6.11
2019-05-12T01:18:50.408Z,6.11
2019-05-12T01:21:19.316Z,6.05
2019-05-12T01:23:56.401Z,6.00
2019-05-12T01:26:17.854Z,5.88
2019-05-12T01:28:46.089Z,5.88
2019-05-12T01:31:15.016Z,5.79
2019-05-12T01:33:43.934Z,5.71
2019-05-12T01:36:12.877Z,5.66
2019-05-12T01:38:41.892Z,5.63
2019-05-12T01:41:10.753Z,5.60
2019-05-12T01:43:39.659Z,5.42
2019-05-12T01:46:08.588Z,5.27
2019-05-12T01:48:37.841Z,5.17
2019-05-12T01:51:08.435Z,5.16
2019-05-12T01:53:37.638Z,5.11
2019-05-12T01:56:04.299Z,5.13
2019-05-12T01:58:33.214Z,5.10
2019-05-12T02:01:03.061Z,5.12
2019-05-12T02:03:31.022Z,5.07
2019-05-12T02:05:59.995Z,4.97
2019-05-12T02:08:33.108Z,4.97
2019-05-12T02:11:20.709Z,4.98
2019-05-12T02:13:50.023Z,4.98
2019-05-12T02:16:19.067Z,4.93
2019-05-12T02:18:49.064Z,4.89
2019-05-12T02:21:18.878Z,4.87
2019-05-12T02:23:47.644Z,4.80
2019-05-12T02:26:14.670Z,4.78
2019-05-12T02:28:43.678Z,4.74
2019-05-12T02:31:12.582Z,4.70
2019-05-12T02:33:44.480Z,4.60
2019-05-12T02:36:10.520Z,4.59
2019-05-12T02:38:39.458Z,4.53
2019-05-12T02:41:08.421Z,4.50
2019-05-12T02:43:37.569Z,4.82
2019-05-12T02:46:06.618Z,4.47
2019-05-12T02:48:35.816Z,4.32
2019-05-12T02:51:05.539Z,4.28
2019-05-12T02:53:35.173Z,4.28
2019-05-12T02:56:05.001Z,4.28
2019-05-12T02:58:34.259Z,4.67
2019-05-12T03:01:00.496Z,4.37
2019-05-12T03:03:29.880Z,4.35
2019-05-12T03:05:59.235Z,4.39
2019-05-12T03:08:28.345Z,4.31
2019-05-12T03:10:57.249Z,4.33
2019-05-12T03:13:26.192Z,4.37
2019-05-12T03:15:55.188Z,4.44
2019-05-12T03:18:25.264Z,4.35
2019-05-12T03:20:54.729Z,4.33
2019-05-12T03:23:24.635Z,4.40
2019-05-12T03:25:50.818Z,4.52
2019-05-12T03:28:19.830Z,4.94
2019-05-12T03:30:56.965Z,4.64
2019-05-12T03:33:20.788Z,4.60
2019-05-12T03:35:52.956Z,4.54
2019-05-12T03:38:18.613Z,4.55
2019-05-12T03:40:47.583Z,4.54
2019-05-12T03:43:16.493Z,4.67
2019-05-12T03:45:45.617Z,4.71
2019-05-12T03:48:15.081Z,4.69
2019-05-12T03:50:46.093Z,4.66
2019-05-12T03:53:15.148Z,4.65
2019-05-12T03:55:45.572Z,4.60
2019-05-12T03:58:10.173Z,4.62
2019-05-12T04:00:39.102Z,4.59
2019-05-12T04:03:08.072Z,4.58
2019-05-12T04:05:36.992Z,5.01
2019-05-12T04:08:06.686Z,4.77
2019-05-12T04:10:35.930Z,4.87
2019-05-12T04:13:04.708Z,4.91
2019-05-12T04:15:34.763Z,4.95
2019-05-12T04:18:04.874Z,4.98
2019-05-12T04:20:30.904Z,5.03
2019-05-12T04:22:59.925Z,4.97
2019-05-12T04:25:46.324Z,5.05
2019-05-12T04:27:57.735Z,5.10
2019-05-12T04:30:26.664Z,5.19
2019-05-12T04:32:55.557Z,5.24
2019-05-12T04:35:25.309Z,5.29
2019-05-12T04:37:55.345Z,5.30
2019-05-12T04:40:24.785Z,5.71
2019-05-12T04:42:54.600Z,5.53
2019-05-12T04:45:20.098Z,5.63
2019-05-12T04:47:49.036Z,5.63
2019-05-12T04:50:24.253Z,5.70
2019-05-12T04:52:49.853Z,5.72
2019-05-12T04:55:18.807Z,5.87
2019-05-12T04:57:48.509Z,5.96
2019-05-12T05:00:17.421Z,6.00
2019-05-12T05:02:46.334Z,6.03
2019-05-12T05:05:15.358Z,6.09
2019-05-12T05:07:44.960Z,6.17
2019-05-12T05:10:14.608Z,6.24
2019-05-12T05:12:44.728Z,6.30
2019-05-12T05:15:11.134Z,6.41
2019-05-12T05:17:40.027Z,6.51
2019-05-12T05:20:09.134Z,6.60
2019-05-12T05:22:38.338Z,6.76
2019-05-12T05:25:07.055Z,6.81
2019-05-12T05:27:36.077Z,6.82
2019-05-12T05:30:05.564Z,6.85
2019-05-12T05:32:34.493Z,7.22
2019-05-12T05:35:07.096Z,6.97
2019-05-12T05:37:39.532Z,7.06
2019-05-12T05:40:03.748Z,7.13
2019-05-12T05:42:32.792Z,7.52
2019-05-12T05:44:59.165Z,7.44
2019-05-12T05:47:28.805Z,7.57
2019-05-12T05:49:57.008Z,7.72
2019-05-12T05:52:32.992Z,7.88
2019-05-12T05:54:54.874Z,8.12
2019-05-12T05:57:29.761Z,8.40
2019-05-12T05:59:58.472Z,8.72
2019-05-12T06:02:31.996Z,9.01
2019-05-12T06:04:56.531Z,9.30
2019-05-12T06:07:35.127Z,9.98
2019-05-12T06:09:54.175Z,11.60
2019-05-12T06:12:24.016Z,12.23
2019-05-12T06:14:57.897Z,12.27
2019-05-12T06:17:20.980Z,12.39
2019-05-12T06:19:49.903Z,12.24
2019-05-12T06:22:18.819Z,12.09
2019-05-12T06:24:49.080Z,12.00
2019-05-12T06:27:20.910Z,11.91
2019-05-12T06:29:45.619Z,11.74
2019-05-12T06:32:14.516Z,11.93
2019-05-12T06:34:43.630Z,11.68
2019-05-12T06:37:16.714Z,11.73
2019-05-12T06:39:43.458Z,11.74
2019-05-12T06:42:14.268Z,11.71
2019-05-12T06:44:39.293Z,11.66
2019-05-12T06:47:08.513Z,11.59
2019-05-12T06:49:37.283Z,11.46
2019-05-12T06:52:07.169Z,11.33
2019-05-12T06:54:35.255Z,11.23
2019-05-12T06:57:21.423Z,11.17
2019-05-12T06:59:33.907Z,11.04
2019-05-12T07:02:04.702Z,11.01
2019-05-12T07:04:34.065Z,10.83
2019-05-12T07:07:03.599Z,10.81
2019-05-12T07:09:34.733Z,10.82
2019-05-12T07:12:03.654Z,10.94
2019-05-12T07:14:29.371Z,11.07
2019-05-12T07:17:05.646Z,11.46
2019-05-12T07:19:30.417Z,11.98
2019-05-12T07:22:00.258Z,12.71
2019-05-12T07:24:28.221Z,15.87
2019-05-12T07:27:04.500Z,19.19
2019-05-12T07:29:26.068Z,21.34
2019-05-12T07:31:55.042Z,22.61
2019-05-12T07:34:24.166Z,23.94
2019-05-12T07:36:53.810Z,24.17
2019-05-12T07:39:24.044Z,25.80
2019-05-12T07:41:54.967Z,26.19
2019-05-12T07:44:25.159Z,27.26
2019-05-12T07:46:53.601Z,27.01
2019-05-12T07:49:21.999Z,27.36
2019-05-12T07:51:50.176Z,28.78
2019-05-12T07:54:18.478Z,28.91
2019-05-12T07:56:47.427Z,27.83
2019-05-12T07:59:16.341Z,27.14
2019-05-12T08:01:51.834Z,26.95
2019-05-12T08:04:14.236Z,27.55
2019-05-12T08:06:46.763Z,27.48
2019-05-12T08:09:13.602Z,27.89
2019-05-12T08:11:43.240Z,25.54
2019-05-12T08:14:13.797Z,27.09
2019-05-12T08:16:38.953Z,27.90
2019-05-12T08:19:08.596Z,26.27
2019-05-12T08:21:43.505Z,24.06
2019-05-12T08:24:06.232Z,22.33
2019-05-12T08:26:35.140Z,22.29
2019-05-12T08:29:04.492Z,21.89
2019-05-12T08:31:40.060Z,19.66
2019-05-12T08:34:04.088Z,18.46
2019-05-12T08:36:33.310Z,17.44
2019-05-12T08:39:03.015Z,17.03
2019-05-12T08:41:28.764Z,16.86
2019-05-12T08:43:58.581Z,16.74
2019-05-12T08:46:26.588Z,16.69
2019-05-12T08:48:57.829Z,16.51
2019-05-12T08:51:24.958Z,16.18
2019-05-12T08:54:02.177Z,16.21
2019-05-12T08:56:24.005Z,16.04
2019-05-12T08:58:54.224Z,15.81
2019-05-12T09:01:25.487Z,15.72
2019-05-12T09:03:49.093Z,15.28
2019-05-12T09:06:19.715Z,14.80
2019-05-12T09:08:49.350Z,14.61
2019-05-12T09:11:15.893Z,14.39
2019-05-12T09:13:44.828Z,14.46
2019-05-12T09:16:14.014Z,14.95
2019-05-12T09:18:43.466Z,15.11
2019-05-12T09:21:13.870Z,15.09
2019-05-12T09:23:41.583Z,15.72
2019-05-12T09:26:09.647Z,15.91
2019-05-12T09:28:47.397Z,16.22
2019-05-12T09:31:07.489Z,16.73
2019-05-12T09:33:36.386Z,16.46
2019-05-12T09:36:05.404Z,16.04
2019-05-12T09:38:34.322Z,16.46
2019-05-12T09:41:05.458Z,17.81
2019-05-12T09:43:34.221Z,19.42
2019-05-12T09:46:01.111Z,20.87
2019-05-12T09:48:30.052Z,20.65
2019-05-12T09:51:00.721Z,20.84
2019-05-12T09:53:27.945Z,19.99
2019-05-12T09:55:58.597Z,19.71
2019-05-12T09:58:27.905Z,18.86
2019-05-12T10:00:54.757Z,18.29
2019-05-12T10:03:24.281Z,18.00
2019-05-12T10:05:53.428Z,18.33
2019-05-12T10:08:23.963Z,18.37
2019-05-12T10:10:50.404Z,18.33
2019-05-12T10:13:20.381Z,17.88
2019-05-12T10:15:48.215Z,18.02
2019-05-12T10:18:17.154Z,17.78
2019-05-12T10:20:46.060Z,17.59
2019-05-12T10:23:16.509Z,17.48
2019-05-12T10:25:44.654Z,17.32
2019-05-12T10:28:13.922Z,17.25
2019-05-12T10:30:41.753Z,17.21
2019-05-12T10:33:10.708Z,17.18
2019-05-12T10:35:39.625Z,17.31
2019-05-12T10:38:10.721Z,17.26
2019-05-12T10:40:37.570Z,17.14
2019-05-12T10:43:06.756Z,16.99
2019-05-12T10:45:38.377Z,16.96
2019-05-12T10:48:07.621Z,17.00
2019-05-12T10:50:36.480Z,18.62
2019-05-12T10:53:09.923Z,19.92
2019-05-12T10:55:34.490Z,20.77
2019-05-12T10:58:06.878Z,21.87
2019-05-12T11:00:33.882Z,22.76
2019-05-12T11:03:06.505Z,23.51
2019-05-12T11:05:30.299Z,24.28
2019-05-12T11:08:00.318Z,24.68
2019-05-12T11:10:28.120Z,24.05
2019-05-12T11:12:59.197Z,23.91
2019-05-12T11:15:26.253Z,22.49
2019-05-12T11:18:12.119Z,21.23
2019-05-12T11:20:40.973Z,20.38
2019-05-12T11:23:09.944Z,19.66
2019-05-12T11:25:38.868Z,20.00
2019-05-12T11:28:08.077Z,19.08
2019-05-12T11:30:37.041Z,18.53
2019-05-12T11:33:06.001Z,18.60
2019-05-12T11:35:36.181Z,18.02
2019-05-12T11:38:05.251Z,17.75
2019-05-12T11:40:34.924Z,18.88
2019-05-12T11:43:04.266Z,18.88
2019-05-12T11:45:33.648Z,18.86
2019-05-12T11:48:07.045Z,18.37
2019-05-12T11:50:29.788Z,18.37
2019-05-12T11:52:58.769Z,18.07
2019-05-12T11:55:31.467Z,17.72
2019-05-12T11:58:00.333Z,17.60
2019-05-12T12:00:25.473Z,17.49
2019-05-12T12:02:54.353Z,17.41
2019-05-12T12:05:23.592Z,17.27
2019-05-12T12:07:53.398Z,17.85
2019-05-12T12:10:23.299Z,17.96
2019-05-12T12:12:50.298Z,18.54
2019-05-12T12:15:20.576Z,18.70
2019-05-12T12:17:48.075Z,18.57
2019-05-12T12:20:22.471Z,18.22
2019-05-12T12:22:46.919Z,17.70
2019-05-12T12:25:16.948Z,17.49
2019-05-12T12:27:45.917Z,17.23
2019-05-12T12:30:19.468Z,17.14
2019-05-12T12:32:44.371Z,16.97
2019-05-12T12:35:14.955Z,16.88
2019-05-12T12:37:41.608Z,16.82
2019-05-12T12:40:10.562Z,16.83
2019-05-12T12:42:43.901Z,16.88
2019-05-12T12:45:40.030Z,17.25
2019-05-12T12:48:05.657Z,17.68
2019-05-12T12:50:34.428Z,17.94
2019-05-12T12:53:03.437Z,18.09
2019-05-12T12:55:32.393Z,18.01
2019-05-12T12:58:03.358Z,17.92
2019-05-12T13:00:45.460Z,17.72
2019-05-12T13:02:59.204Z,17.47
2019-05-12T13:05:28.150Z,17.26
2019-05-12T13:07:57.115Z,17.19
2019-05-12T13:10:26.017Z,17.23
2019-05-12T13:13:00.807Z,17.32
2019-05-12T13:15:23.887Z,17.48
2019-05-12T13:17:52.919Z,17.91
2019-05-12T13:20:23.837Z,18.23
2019-05-12T13:22:50.698Z,18.46
2019-05-12T13:25:19.611Z,18.20
2019-05-12T13:27:48.602Z,18.06
2019-05-12T13:30:21.283Z,17.91
2019-05-12T13:32:46.414Z,17.76
2019-05-12T13:35:19.595Z,17.67
2019-05-12T13:37:44.247Z,17.74
2019-05-12T13:40:13.240Z,18.04
2019-05-12T13:42:43.776Z,18.08
2019-05-12T13:45:15.441Z,17.99
2019-05-12T13:47:40.243Z,18.06
2019-05-12T13:50:13.373Z,18.33
2019-05-12T13:52:37.912Z,18.55
2019-05-12T13:55:07.772Z,18.66
2019-05-12T13:57:35.864Z,18.55
2019-05-12T14:00:10.401Z,18.26
2019-05-12T14:02:34.306Z,18.06
2019-05-12T14:05:07.292Z,17.94
2019-05-12T14:07:34.416Z,18.07
2019-05-12T14:10:03.454Z,18.02
2019-05-12T14:12:29.924Z,18.06
2019-05-12T14:14:58.840Z,18.11
2019-05-12T14:17:31.162Z,18.00
2019-05-12T14:19:56.835Z,17.93
2019-05-12T14:22:26.379Z,17.59
2019-05-12T14:24:54.558Z,17.60
2019-05-12T14:27:25.446Z,17.46
2019-05-12T14:29:53.722Z,17.25
2019-05-12T14:32:21.366Z,16.98
2019-05-12T14:34:51.126Z,16.75
2019-05-12T14:37:19.182Z,16.52
2019-05-12T14:39:50.288Z,16.43
2019-05-12T14:42:17.016Z,16.60
2019-05-12T14:44:49.720Z,16.48
2019-05-12T14:47:19.246Z,16.55
2019-05-12T14:49:43.748Z,16.97
2019-05-12T14:52:13.486Z,17.21
2019-05-12T14:54:43.560Z,17.22
2019-05-12T14:57:10.563Z,16.97
2019-05-12T14:59:41.185Z,16.84
2019-05-12T15:02:08.461Z,16.73
2019-05-12T15:04:37.384Z,16.88
2019-05-12T15:07:09.925Z,16.70
2019-05-12T15:09:35.332Z,16.76
2019-05-12T15:12:04.297Z,16.53
2019-05-12T15:14:37.770Z,16.37
2019-05-12T15:17:03.739Z,16.32
2019-05-12T15:19:33.262Z,16.19
2019-05-12T15:22:01.568Z,16.06
2019-05-12T15:24:28.893Z,16.03
2019-05-12T15:27:00.707Z,15.87
2019-05-12T15:29:26.809Z,15.79
2019-05-12T15:31:56.802Z,15.79
2019-05-12T15:34:24.646Z,16.02
2019-05-12T15:36:56.144Z,16.30
2019-05-12T15:39:22.598Z,16.62
2019-05-12T15:41:56.594Z,16.70
2019-05-12T15:44:24.788Z,16.62
2019-05-12T15:46:49.308Z,16.43
2019-05-12T15:49:18.268Z,16.42
2019-05-12T15:51:54.175Z,16.21
2019-05-12T15:54:16.149Z,16.45
2019-05-12T15:56:45.102Z,16.71
2019-05-12T15:59:17.032Z,16.96
2019-05-12T16:01:43.961Z,17.14
2019-05-12T16:04:15.213Z,17.26
2019-05-12T16:06:45.085Z,17.28
2019-05-12T16:09:09.845Z,17.36
2019-05-12T16:11:38.784Z,17.26
2019-05-12T16:14:07.805Z,17.17
2019-05-12T16:16:42.633Z,16.96
2019-05-12T16:19:05.661Z,16.82
2019-05-12T16:21:34.621Z,16.49
2019-05-12T16:24:10.943Z,16.13
2019-05-12T16:26:33.493Z,16.04
2019-05-12T16:29:05.313Z,15.82
2019-05-12T16:31:30.332Z,15.81
2019-05-12T16:34:01.450Z,15.75
2019-05-12T16:36:28.166Z,15.72
2019-05-12T16:39:00.133Z,15.69
2019-05-12T16:41:29.683Z,15.96
2019-05-12T16:43:54.991Z,15.76
2019-05-12T16:46:23.901Z,15.71
2019-05-12T16:48:56.213Z,15.59
2019-05-12T16:51:23.765Z,15.59
2019-05-12T16:53:50.677Z,15.71
2019-05-12T16:56:20.059Z,15.78
2019-05-12T16:58:48.528Z,15.68
2019-05-12T17:01:19.446Z,15.46
2019-05-12T17:03:46.395Z,15.48
2019-05-12T17:06:15.331Z,15.37
2019-05-12T17:08:44.354Z,15.31
2019-05-12T17:11:24.420Z,15.19
2019-05-12T17:13:49.267Z,15.05
2019-05-12T17:16:14.102Z,15.01
2019-05-12T17:18:44.271Z,14.92
2019-05-12T17:21:14.128Z,14.89
2019-05-12T17:23:40.899Z,14.75
2019-05-12T17:26:09.808Z,14.77
2019-05-12T17:28:38.722Z,14.81
2019-05-12T17:31:07.861Z,14.83
2019-05-12T17:33:39.256Z,14.82
2019-05-12T17:36:11.671Z,14.71
2019-05-12T17:38:34.798Z,14.80
2019-05-12T17:41:03.942Z,14.94
2019-05-12T17:43:33.883Z,14.85
2019-05-12T17:46:04.344Z,14.86
2019-05-12T17:48:30.490Z,14.85
2019-05-12T17:50:59.419Z,14.79
2019-05-12T17:53:30.500Z,14.63
2019-05-12T17:55:57.235Z,14.56
2019-05-12T17:58:29.879Z,14.38
2019-05-12T18:00:55.095Z,14.37
2019-05-12T18:03:25.667Z,14.48
2019-05-12T18:05:53.373Z,14.31
2019-05-12T18:08:24.235Z,14.26
2019-05-12T18:10:50.841Z,14.24
2019-05-12T18:13:23.145Z,14.17
2019-05-12T18:15:48.671Z,14.12
2019-05-12T18:18:17.819Z,14.24
2019-05-12T18:20:46.570Z,14.11
2019-05-12T18:23:19.959Z,14.02
2019-05-12T18:25:44.456Z,13.96
2019-05-12T18:28:14.073Z,13.86
2019-05-12T18:30:42.308Z,13.81
2019-05-12T18:33:13.583Z,13.70
2019-05-12T18:35:40.102Z,13.59
2019-05-12T18:38:18.290Z,13.48
2019-05-12T18:40:38.097Z,13.36
2019-05-12T18:43:07.042Z,13.28
2019-05-12T18:45:35.966Z,13.21
2019-05-12T18:48:10.648Z,13.17
2019-05-12T18:50:34.423Z,13.11
2019-05-12T18:53:02.786Z,13.06
2019-05-12T18:55:36.020Z,12.95
2019-05-12T18:58:00.611Z,12.89
2019-05-12T19:00:29.538Z,12.83
2019-05-12T19:02:59.741Z,12.76
2019-05-12T19:05:30.587Z,12.66
2019-05-12T19:07:56.314Z,12.59
2019-05-12T19:10:25.231Z,12.55
2019-05-12T19:13:01.327Z,12.44
2019-05-12T19:15:23.100Z,12.42
2019-05-12T19:17:54.050Z,12.36
2019-05-12T19:20:20.941Z,12.32
2019-05-12T19:22:57.350Z,12.27
2019-05-12T19:25:19.496Z,12.18
2019-05-12T19:27:54.989Z,12.16
2019-05-12T19:30:19.246Z,12.11
2019-05-12T19:32:45.538Z,12.01
2019-05-12T19:35:20.094Z,11.91
2019-05-12T19:37:45.367Z,11.82
2019-05-12T19:40:16.559Z,11.74
2019-05-12T19:42:41.363Z,11.74
2019-05-12T19:45:16.150Z,11.65
2019-05-12T19:47:39.270Z,11.57
2019-05-12T19:50:11.153Z,11.75
2019-05-12T19:52:37.311Z,11.54
2019-05-12T19:55:06.331Z,11.48
2019-05-12T19:57:35.204Z,11.42
2019-05-12T20:00:04.699Z,11.36
2019-05-12T20:02:34.284Z,11.31
2019-05-12T20:05:04.659Z,11.31
2019-05-12T20:07:33.808Z,11.26
2019-05-12T20:10:00.938Z,11.23
2019-05-12T20:12:29.420Z,11.17
2019-05-12T20:14:59.223Z,11.11
2019-05-12T20:17:27.222Z,11.04
2019-05-12T20:19:56.145Z,11.00
2019-05-12T20:22:25.108Z,10.89
2019-05-12T20:24:54.008Z,10.78
2019-05-12T20:27:24.762Z,10.71
2019-05-12T20:29:53.845Z,10.87
2019-05-12T20:32:20.815Z,10.65
2019-05-12T20:34:52.983Z,10.56
2019-05-12T20:37:18.628Z,10.58
2019-05-12T20:39:51.126Z,10.43
2019-05-12T20:42:16.662Z,10.34
2019-05-12T20:44:45.627Z,10.28
2019-05-12T20:47:14.585Z,10.22
2019-05-12T20:49:51.032Z,10.10
2019-05-12T20:52:14.362Z,10.03
2019-05-12T20:54:43.962Z,9.91
2019-05-12T20:57:10.350Z,9.84
2019-05-12T20:59:44.343Z,9.86
2019-05-12T21:02:10.999Z,9.79
2019-05-12T21:04:39.863Z,9.73
2019-05-12T21:07:14.095Z,9.68
2019-05-12T21:09:37.724Z,9.65
2019-05-12T21:12:06.737Z,9.54
2019-05-12T21:14:35.629Z,9.52
2019-05-12T21:17:09.385Z,9.46
2019-05-12T21:19:37.950Z,9.42
2019-05-12T21:22:03.933Z,9.37
2019-05-12T21:24:35.964Z,9.27
2019-05-12T21:27:00.277Z,9.25
2019-05-12T21:29:30.106Z,9.18
2019-05-12T21:32:02.895Z,9.09
2019-05-12T21:34:27.070Z,8.99
2019-05-12T21:36:58.925Z,8.90
2019-05-12T21:39:24.914Z,8.75
2019-05-12T21:41:54.921Z,8.70
2019-05-12T21:44:24.556Z,8.67
2019-05-12T21:46:58.951Z,8.61
2019-05-12T21:49:20.627Z,8.50
2019-05-12T21:51:56.079Z,8.42
2019-05-12T21:54:19.561Z,8.34
2019-05-12T21:56:49.480Z,8.24
2019-05-12T21:59:17.399Z,8.22
2019-05-12T22:01:46.391Z,8.21
2019-05-12T22:04:15.331Z,8.21
2019-05-12T22:06:44.280Z,8.26
2019-05-12T22:09:14.705Z,8.23
2019-05-12T22:11:50.662Z,8.14
2019-05-12T22:14:11.021Z,8.03
2019-05-12T22:16:44.334Z,7.90
2019-05-12T22:19:08.882Z,7.86
2019-05-12T22:21:46.956Z,7.79
2019-05-12T22:24:06.766Z,7.77
2019-05-12T22:26:39.672Z,7.71
2019-05-12T22:29:04.897Z,7.71
2019-05-12T22:31:38.512Z,7.68
2019-05-12T22:34:04.009Z,7.60
2019-05-12T22:36:33.642Z,7.59
2019-05-12T22:39:02.260Z,7.91
2019-05-12T22:41:30.310Z,7.97
2019-05-12T22:43:58.565Z,7.63
2019-05-12T22:46:31.381Z,7.56
2019-05-12T22:48:56.461Z,7.83
2019-05-12T22:51:26.947Z,7.44
2019-05-12T22:53:54.337Z,7.39
2019-05-12T22:56:23.765Z,7.34
2019-05-12T22:58:59.879Z,7.32
2019-05-12T23:01:23.390Z,7.31
2019-05-12T23:03:52.005Z,7.20
2019-05-12T23:06:23.582Z,7.17
2019-05-12T23:08:49.399Z,7.51
2019-05-12T23:11:16.945Z,7.20
2019-05-12T23:13:45.927Z,7.13
2019-05-12T23:16:19.245Z,7.45
2019-05-12T23:18:44.449Z,7.55
2019-05-12T23:21:17.472Z,7.29
2019-05-12T23:23:41.754Z,7.22
2019-05-12T23:26:10.721Z,7.20
2019-05-12T23:28:40.472Z,7.13
2019-05-12T23:31:08.624Z,7.03
2019-05-12T23:33:37.588Z,6.93
2019-05-12T23:36:09.601Z,6.86
2019-05-12T23:38:35.458Z,7.16
2019-05-12T23:41:04.390Z,6.78
2019-05-12T23:43:34.136Z,6.58
2019-05-12T23:46:02.259Z,6.54
2019-05-12T23:48:33.384Z,6.50
2019-05-12T23:51:00.265Z,6.47
2019-05-12T23:53:29.211Z,6.40
2019-05-12T23:55:58.149Z,6.33
2019-05-12T23:58:27.064Z,6.29
